createdAt,value
2022-12-08T00:00:40.779Z,88.36
2022-12-08T00:03:07.278Z,88.36
2022-12-08T00:05:52.672Z,87.74
2022-12-08T00:08:37.582Z,87.29
2022-12-08T00:11:03.909Z,87.85
2022-12-08T00:13:30.222Z,87.59
2022-12-08T00:15:56.547Z,88.05
2022-12-08T00:18:22.984Z,87.67
2022-12-08T00:20:49.295Z,87.21
2022-12-08T00:23:15.593Z,87.63
2022-12-08T00:25:41.898Z,86.95
2022-12-08T00:28:08.210Z,86.86
2022-12-08T00:30:34.521Z,86.41
2022-12-08T00:33:00.833Z,86.48
2022-12-08T00:35:27.154Z,86.95
2022-12-08T00:37:59.130Z,86.39
2022-12-08T00:40:27.061Z,86.81
2022-12-08T00:42:53.520Z,87.91
2022-12-08T00:45:19.839Z,88.14
2022-12-08T00:47:46.149Z,87.67
2022-12-08T00:50:12.542Z,87.14
2022-12-08T00:52:38.856Z,86.38
2022-12-08T00:55:05.167Z,87.02
2022-12-08T00:57:31.529Z,86.36
2022-12-08T00:59:57.851Z,86.52
2022-12-08T01:02:24.589Z,88.77
2022-12-08T01:04:50.918Z,87.79
2022-12-08T01:07:17.259Z,87.40
2022-12-08T01:09:43.603Z,87.56
2022-12-08T01:12:09.946Z,88.05
2022-12-08T01:14:36.266Z,87.76
2022-12-08T01:17:02.636Z,88.34
2022-12-08T01:19:29.169Z,87.38
2022-12-08T01:21:55.494Z,87.60
2022-12-08T01:24:21.813Z,88.02
2022-12-08T01:26:48.197Z,87.33
2022-12-08T01:29:14.518Z,86.60
2022-12-08T01:31:40.984Z,88.53
2022-12-08T01:34:07.320Z,88.24
2022-12-08T01:36:33.633Z,87.19
2022-12-08T01:38:59.961Z,86.78
2022-12-08T01:41:26.449Z,86.47
2022-12-08T01:43:52.762Z,87.37
2022-12-08T01:46:19.178Z,87.50
2022-12-08T01:48:45.552Z,86.47
2022-12-08T01:51:11.879Z,86.59
2022-12-08T01:53:38.194Z,87.38
2022-12-08T01:56:04.503Z,87.24
2022-12-08T01:58:30.817Z,86.82
2022-12-08T02:00:57.185Z,86.80
2022-12-08T02:03:23.500Z,87.50
2022-12-08T02:05:49.824Z,88.33
2022-12-08T02:08:16.239Z,87.79
2022-12-08T02:10:42.733Z,87.61
2022-12-08T02:13:09.040Z,88.13
2022-12-08T02:15:35.454Z,89.32
2022-12-08T02:18:01.791Z,90.02
2022-12-08T02:20:28.772Z,90.05
2022-12-08T02:22:55.080Z,89.57
2022-12-08T02:25:21.436Z,90.04
2022-12-08T02:27:49.158Z,89.91
2022-12-08T02:30:15.522Z,89.90
2022-12-08T02:32:41.824Z,89.56
2022-12-08T02:35:08.137Z,89.74
2022-12-08T02:37:34.440Z,89.68
2022-12-08T02:40:00.867Z,89.64
2022-12-08T02:42:27.391Z,89.72
2022-12-08T02:44:53.710Z,89.70
2022-12-08T02:47:20.107Z,89.81
2022-12-08T02:49:46.458Z,90.39
2022-12-08T02:52:12.755Z,90.08
2022-12-08T02:54:39.086Z,89.80
2022-12-08T02:57:05.400Z,90.34
2022-12-08T02:59:31.689Z,89.83
2022-12-08T03:01:58.010Z,90.20
2022-12-08T03:04:24.416Z,89.51
2022-12-08T03:06:50.727Z,89.26
2022-12-08T03:09:17.020Z,89.26
2022-12-08T03:11:43.327Z,89.40
2022-12-08T03:14:09.683Z,89.61
2022-12-08T03:16:36.043Z,89.19
2022-12-08T03:19:02.369Z,88.98
2022-12-08T03:21:28.677Z,88.68
2022-12-08T03:23:55.333Z,88.98
2022-12-08T03:26:21.646Z,89.53
2022-12-08T03:28:47.973Z,89.92
2022-12-08T03:31:14.463Z,90.35
2022-12-08T03:33:40.947Z,90.25
2022-12-08T03:36:07.314Z,90.15
2022-12-08T03:38:33.628Z,90.27
2022-12-08T03:41:18.475Z,90.06
2022-12-08T03:43:44.798Z,89.87
2022-12-08T03:46:11.193Z,89.77
2022-12-08T03:48:37.534Z,90.15
2022-12-08T03:51:03.854Z,89.85
2022-12-08T03:53:30.157Z,89.85
2022-12-08T03:55:56.496Z,90.56
2022-12-08T03:58:22.811Z,90.22
2022-12-08T04:00:49.138Z,90.26
2022-12-08T04:03:15.580Z,91.15
2022-12-08T04:05:42.010Z,90.91
2022-12-08T04:08:08.420Z,91.22
2022-12-08T04:10:34.780Z,92.13
2022-12-08T04:13:01.175Z,91.45
2022-12-08T04:15:27.544Z,91.13
2022-12-08T04:17:53.857Z,91.36
2022-12-08T04:20:20.173Z,90.93
2022-12-08T04:22:46.469Z,90.92
2022-12-08T04:25:12.941Z,90.46
2022-12-08T04:27:39.297Z,89.83
2022-12-08T04:30:05.795Z,90.81
2022-12-08T04:32:32.404Z,89.67
2022-12-08T04:34:58.714Z,90.72
2022-12-08T04:37:25.042Z,90.11
2022-12-08T04:39:51.373Z,89.31
2022-12-08T04:42:17.711Z,89.81
2022-12-08T04:44:44.047Z,89.81
2022-12-08T04:47:10.374Z,89.45
2022-12-08T04:49:36.695Z,88.75
2022-12-08T04:52:03.035Z,89.82
2022-12-08T04:54:29.352Z,88.64
2022-12-08T04:56:55.667Z,89.88
2022-12-08T04:59:21.969Z,89.47
2022-12-08T05:01:48.506Z,90.35
2022-12-08T05:04:14.951Z,91.61
2022-12-08T05:06:41.294Z,91.13
2022-12-08T05:09:07.860Z,91.34
2022-12-08T05:11:34.180Z,89.82
2022-12-08T05:14:00.520Z,90.24
2022-12-08T05:16:26.875Z,90.27
2022-12-08T05:18:53.235Z,90.59
2022-12-08T05:21:19.596Z,89.30
2022-12-08T05:23:45.934Z,89.34
2022-12-08T05:26:12.259Z,89.71
2022-12-08T05:28:41.953Z,89.65
2022-12-08T05:31:09.284Z,89.04
2022-12-08T05:33:35.652Z,88.42
2022-12-08T05:36:01.969Z,89.32
2022-12-08T05:38:28.274Z,90.65
2022-12-08T05:40:54.585Z,90.08
2022-12-08T05:43:20.903Z,89.62
2022-12-08T05:45:47.254Z,88.92
2022-12-08T05:48:13.612Z,89.62
2022-12-08T05:50:39.924Z,89.68
2022-12-08T05:53:06.239Z,90.01
2022-12-08T05:55:32.555Z,89.43
2022-12-08T05:58:01.919Z,89.04
2022-12-08T06:00:34.923Z,89.22
2022-12-08T06:03:01.392Z,88.83
2022-12-08T06:05:27.928Z,88.90
2022-12-08T06:07:54.324Z,88.26
2022-12-08T06:10:20.715Z,88.06
2022-12-08T06:12:47.031Z,88.08
2022-12-08T06:15:13.371Z,88.59
2022-12-08T06:17:39.690Z,88.43
2022-12-08T06:20:06.265Z,88.60
2022-12-08T06:22:32.825Z,89.37
2022-12-08T06:24:59.155Z,89.10
2022-12-08T06:27:25.534Z,89.16
2022-12-08T06:29:51.866Z,88.71
2022-12-08T06:32:20.807Z,89.35
2022-12-08T06:34:50.709Z,89.42
2022-12-08T06:37:17.070Z,91.09
2022-12-08T06:39:43.389Z,89.45
2022-12-08T06:42:28.657Z,88.77
2022-12-08T06:44:54.978Z,88.87
2022-12-08T06:47:26.071Z,88.66
2022-12-08T06:49:52.697Z,87.99
2022-12-08T06:52:19.026Z,88.00
2022-12-08T06:54:45.339Z,88.09
2022-12-08T06:57:11.650Z,88.05
2022-12-08T06:59:37.957Z,87.67
2022-12-08T07:02:04.350Z,87.25
2022-12-08T07:04:30.680Z,86.42
2022-12-08T07:06:57.040Z,86.97
2022-12-08T07:09:23.413Z,87.20
2022-12-08T07:11:49.738Z,88.25
2022-12-08T07:14:16.126Z,88.48
2022-12-08T07:16:42.487Z,87.94
2022-12-08T07:19:08.811Z,87.84
2022-12-08T07:21:35.121Z,87.93
2022-12-08T07:24:01.676Z,89.06
2022-12-08T07:26:28.056Z,88.75
2022-12-08T07:28:54.396Z,88.66
2022-12-08T07:31:20.794Z,88.94
2022-12-08T07:33:47.210Z,89.25
2022-12-08T07:36:13.587Z,89.07
2022-12-08T07:38:39.929Z,88.91
2022-12-08T07:41:06.260Z,88.93
2022-12-08T07:43:32.625Z,90.59
2022-12-08T07:45:59.033Z,90.26
2022-12-08T07:48:25.455Z,90.73
2022-12-08T07:50:51.761Z,90.39
2022-12-08T07:53:18.224Z,90.25
2022-12-08T07:55:44.562Z,89.73
2022-12-08T07:58:10.890Z,89.98
2022-12-08T08:00:37.252Z,89.59
2022-12-08T08:03:03.728Z,89.57
2022-12-08T08:05:30.083Z,89.75
2022-12-08T08:07:56.480Z,89.68
2022-12-08T08:10:22.870Z,89.56
2022-12-08T08:12:49.233Z,89.65
2022-12-08T08:15:15.779Z,89.71
2022-12-08T08:17:42.140Z,88.88
2022-12-08T08:20:08.566Z,89.31
2022-12-08T08:22:34.902Z,89.30
2022-12-08T08:25:01.206Z,89.23
2022-12-08T08:27:27.813Z,89.88
2022-12-08T08:29:54.144Z,89.84
2022-12-08T08:32:20.453Z,89.78
2022-12-08T08:34:46.757Z,88.08
2022-12-08T08:37:13.147Z,88.54
2022-12-08T08:39:39.551Z,89.27
2022-12-08T08:42:05.859Z,90.38
2022-12-08T08:44:32.216Z,91.13
2022-12-08T08:46:58.546Z,91.68
2022-12-08T08:49:24.910Z,91.40
2022-12-08T08:51:51.269Z,90.80
2022-12-08T08:54:17.592Z,91.15
2022-12-08T08:56:44.193Z,90.41
2022-12-08T08:59:10.667Z,89.55
2022-12-08T09:01:37.053Z,89.11
2022-12-08T09:04:03.562Z,90.05
2022-12-08T09:06:30.004Z,89.09
2022-12-08T09:08:56.500Z,88.58
2022-12-08T09:11:25.911Z,88.12
2022-12-08T09:13:52.260Z,88.03
2022-12-08T09:16:18.742Z,88.88
2022-12-08T09:18:45.121Z,88.61
2022-12-08T09:21:13.229Z,87.27
2022-12-08T09:23:39.551Z,87.21
2022-12-08T09:26:05.894Z,86.75
2022-12-08T09:28:32.277Z,86.52
2022-12-08T09:30:58.651Z,85.33
2022-12-08T09:33:25.043Z,83.38
2022-12-08T09:35:51.368Z,82.05
2022-12-08T09:38:17.686Z,80.33
2022-12-08T09:40:43.990Z,78.69
2022-12-08T09:43:10.328Z,78.20
2022-12-08T09:45:36.698Z,78.72
2022-12-08T09:48:03.046Z,80.43
2022-12-08T09:50:29.904Z,78.34
2022-12-08T09:52:56.220Z,77.18
2022-12-08T09:55:22.647Z,75.84
2022-12-08T09:57:53.073Z,76.24
2022-12-08T10:00:23.245Z,75.40
2022-12-08T10:02:49.634Z,75.34
2022-12-08T10:05:16.058Z,74.25
2022-12-08T10:07:42.530Z,75.82
2022-12-08T10:10:08.899Z,75.60
2022-12-08T10:12:35.255Z,75.33
2022-12-08T10:15:01.613Z,73.51
2022-12-08T10:17:27.959Z,73.36
2022-12-08T10:19:54.268Z,73.39
2022-12-08T10:22:20.620Z,72.31
2022-12-08T10:24:47.160Z,71.95
2022-12-08T10:27:13.507Z,72.18
2022-12-08T10:29:39.849Z,72.30
2022-12-08T10:32:06.207Z,70.51
2022-12-08T10:34:32.568Z,69.93
2022-12-08T10:36:58.912Z,72.72
2022-12-08T10:39:25.229Z,73.70
2022-12-08T10:41:51.580Z,73.71
2022-12-08T10:44:18.080Z,73.81
2022-12-08T10:46:44.554Z,74.14
2022-12-08T10:49:10.910Z,74.35
2022-12-08T10:51:37.243Z,74.90
2022-12-08T10:54:06.106Z,74.73
2022-12-08T10:56:32.435Z,74.25
2022-12-08T10:58:58.797Z,74.32
2022-12-08T11:01:25.152Z,73.93
2022-12-08T11:03:51.547Z,73.46
2022-12-08T11:06:17.904Z,72.70
2022-12-08T11:08:44.227Z,71.27
2022-12-08T11:11:10.604Z,69.75
2022-12-08T11:13:36.912Z,69.67
2022-12-08T11:16:03.330Z,69.40
2022-12-08T11:18:29.839Z,69.27
2022-12-08T11:20:56.190Z,69.12
2022-12-08T11:23:22.551Z,68.55
2022-12-08T11:25:48.894Z,67.66
2022-12-08T11:28:15.495Z,68.49
2022-12-08T11:30:41.895Z,68.72
2022-12-08T11:33:08.232Z,69.32
2022-12-08T11:35:34.555Z,69.10
2022-12-08T11:38:19.873Z,70.31
2022-12-08T11:40:48.012Z,69.30
2022-12-08T11:43:14.417Z,71.87
2022-12-08T11:45:40.816Z,70.04
2022-12-08T11:48:07.189Z,69.85
2022-12-08T11:50:33.495Z,70.19
2022-12-08T11:52:59.827Z,68.87
2022-12-08T11:55:26.187Z,69.25
2022-12-08T11:57:52.573Z,68.62
2022-12-08T12:00:18.947Z,70.64
2022-12-08T12:02:45.388Z,69.72
2022-12-08T12:05:11.783Z,70.02
2022-12-08T12:07:38.191Z,69.49
2022-12-08T12:10:04.670Z,68.62
2022-12-08T12:12:36.327Z,69.96
2022-12-08T12:15:05.734Z,69.12
2022-12-08T12:17:32.101Z,68.35
2022-12-08T12:19:58.422Z,67.83
2022-12-08T12:22:24.774Z,68.82
2022-12-08T12:24:51.107Z,67.31
2022-12-08T12:27:17.472Z,66.54
2022-12-08T12:29:43.809Z,64.89
2022-12-08T12:32:10.154Z,64.52
2022-12-08T12:34:36.566Z,64.18
2022-12-08T12:37:02.904Z,63.98
2022-12-08T12:39:29.307Z,64.19
2022-12-08T12:41:55.738Z,63.18
2022-12-08T12:44:26.198Z,63.45
2022-12-08T12:46:53.370Z,64.25
2022-12-08T12:49:19.702Z,64.97
2022-12-08T12:51:46.065Z,64.39
2022-12-08T12:54:12.518Z,65.73
2022-12-08T12:56:38.881Z,65.34
2022-12-08T12:59:05.195Z,65.62
2022-12-08T13:01:31.661Z,66.08
2022-12-08T13:03:58.129Z,66.66
2022-12-08T13:06:24.438Z,67.27
2022-12-08T13:08:50.753Z,66.55
2022-12-08T13:11:17.075Z,67.68
2022-12-08T13:13:43.598Z,66.93
2022-12-08T13:16:20.601Z,66.58
2022-12-08T13:18:46.960Z,67.55
2022-12-08T13:21:15.135Z,67.71
2022-12-08T13:23:41.453Z,67.15
2022-12-08T13:26:07.782Z,67.79
2022-12-08T13:28:34.109Z,67.63
2022-12-08T13:31:00.560Z,67.92
2022-12-08T13:33:27.983Z,68.45
2022-12-08T13:35:54.299Z,68.12
2022-12-08T13:38:20.675Z,68.13
2022-12-08T13:40:47.281Z,69.10
2022-12-08T13:43:13.622Z,67.79
2022-12-08T13:46:41.914Z,68.42
2022-12-08T13:49:03.393Z,69.04
2022-12-08T13:57:05.558Z,69.16
2022-12-08T13:59:33.947Z,69.12
2022-12-08T14:02:00.358Z,69.71
2022-12-08T14:04:54.318Z,69.90
2022-12-08T14:07:13.735Z,69.12
2022-12-08T14:09:40.034Z,69.10
2022-12-08T14:12:06.369Z,68.84
2022-12-08T14:15:01.122Z,69.94
2022-12-08T14:17:20.434Z,69.60
2022-12-08T14:19:46.763Z,69.87
2022-12-08T14:22:13.686Z,69.76
2022-12-08T14:24:40.015Z,70.32
2022-12-08T14:27:06.425Z,70.87
2022-12-08T14:29:32.800Z,70.84
2022-12-08T14:31:59.158Z,71.98
2022-12-08T14:34:25.522Z,71.48
2022-12-08T14:36:51.831Z,72.30
2022-12-08T14:39:18.152Z,71.36
2022-12-08T14:41:44.471Z,72.36
2022-12-08T14:44:10.793Z,72.15
2022-12-08T14:46:38.212Z,72.04
2022-12-08T14:49:04.652Z,72.10
2022-12-08T14:51:31.069Z,72.44
2022-12-08T14:53:58.998Z,72.35
2022-12-08T14:56:25.489Z,72.58
2022-12-08T14:58:51.830Z,72.42
2022-12-08T15:01:18.335Z,72.47
2022-12-08T15:03:50.737Z,72.45
2022-12-08T15:06:17.674Z,73.31
2022-12-08T15:08:44.004Z,72.82
2022-12-08T15:11:10.318Z,72.59
2022-12-08T15:13:36.656Z,73.07
2022-12-08T15:16:03.017Z,73.21
2022-12-08T15:18:29.660Z,73.38
2022-12-08T15:20:56.447Z,73.09
2022-12-08T15:23:22.793Z,72.97
2022-12-08T15:25:49.151Z,73.22
2022-12-08T15:28:15.493Z,73.83
2022-12-08T15:30:41.809Z,73.97
2022-12-08T15:33:08.145Z,74.03
2022-12-08T15:35:40.346Z,74.13
2022-12-08T15:38:07.252Z,74.02
2022-12-08T15:40:33.564Z,74.43
2022-12-08T15:42:59.941Z,74.24
2022-12-08T15:45:26.247Z,74.33
2022-12-08T15:47:52.549Z,74.30
2022-12-08T15:50:18.868Z,73.96
2022-12-08T15:52:45.215Z,74.22
2022-12-08T15:55:11.523Z,74.46
2022-12-08T15:58:31.256Z,73.98
2022-12-08T16:03:34.120Z,74.10
2022-12-08T16:06:57.044Z,74.53
2022-12-08T16:09:00.628Z,74.17
2022-12-08T16:12:06.660Z,74.17
2022-12-08T16:15:39.720Z,74.69
2022-12-08T16:17:20.746Z,74.24
2022-12-08T16:19:47.059Z,74.10
2022-12-08T16:25:14.668Z,74.25
2022-12-08T16:28:05.196Z,73.57
2022-12-08T16:30:30.755Z,73.89
2022-12-08T16:32:57.114Z,73.36
2022-12-08T16:35:23.462Z,73.58
2022-12-08T16:37:49.780Z,73.55
2022-12-08T16:40:16.103Z,73.70
2022-12-08T16:42:50.410Z,72.84
2022-12-08T16:45:16.915Z,73.70
2022-12-08T16:47:43.287Z,73.74
2022-12-08T16:50:09.619Z,73.23
2022-12-08T16:52:35.949Z,73.11
2022-12-08T16:55:02.527Z,72.51
2022-12-08T16:57:29.117Z,72.85
2022-12-08T16:59:55.475Z,73.07
2022-12-08T17:02:21.792Z,72.97
2022-12-08T17:04:48.169Z,72.79
2022-12-08T17:07:14.545Z,72.59
2022-12-08T17:09:40.875Z,73.01
2022-12-08T17:12:07.195Z,73.00
2022-12-08T17:14:33.919Z,73.19
2022-12-08T17:17:00.331Z,73.09
2022-12-08T17:19:26.715Z,73.15
2022-12-08T17:21:53.031Z,73.34
2022-12-08T17:24:22.301Z,73.19
2022-12-08T17:26:48.734Z,74.01
2022-12-08T17:29:15.086Z,73.42
2022-12-08T17:31:41.462Z,73.90
2022-12-08T17:34:10.427Z,73.64
2022-12-08T17:36:36.902Z,73.10
2022-12-08T17:39:03.387Z,74.21
2022-12-08T17:41:30.026Z,72.95
2022-12-08T17:43:56.356Z,73.37
2022-12-08T17:46:22.754Z,72.86
2022-12-08T17:48:49.162Z,73.08
2022-12-08T17:51:15.484Z,72.95
2022-12-08T17:53:41.885Z,73.43
2022-12-08T17:56:11.287Z,72.87
2022-12-08T17:58:37.594Z,73.05
2022-12-08T18:01:03.991Z,72.80
2022-12-08T18:03:30.331Z,74.59
2022-12-08T18:05:56.688Z,74.00
2022-12-08T18:08:23.047Z,73.99
2022-12-08T18:10:49.403Z,73.86
2022-12-08T18:13:15.812Z,74.24
2022-12-08T18:15:42.123Z,73.91
2022-12-08T18:18:08.518Z,75.67
2022-12-08T18:20:35.193Z,74.29
2022-12-08T18:23:01.535Z,74.93
2022-12-08T18:25:27.837Z,75.02
2022-12-08T18:27:54.230Z,73.97
2022-12-08T18:30:20.663Z,75.02
2022-12-08T18:32:47.050Z,74.82
2022-12-08T18:35:13.539Z,74.54
2022-12-08T18:37:39.866Z,74.64
2022-12-08T18:40:06.293Z,74.72
2022-12-08T18:42:32.851Z,74.75
2022-12-08T18:45:07.008Z,74.36
2022-12-08T18:47:33.344Z,75.29
2022-12-08T18:49:59.701Z,75.17
2022-12-08T18:52:31.179Z,73.94
2022-12-08T18:55:06.454Z,73.91
2022-12-08T18:57:33.556Z,74.75
2022-12-08T18:59:59.985Z,74.65
2022-12-08T19:02:26.397Z,74.80
2022-12-08T19:04:52.710Z,73.90
2022-12-08T19:07:19.997Z,73.95
2022-12-08T19:09:46.318Z,74.20
2022-12-08T19:12:13.277Z,73.84
2022-12-08T19:14:39.591Z,73.85
2022-12-08T19:17:05.913Z,73.90
2022-12-08T19:19:32.261Z,73.66
2022-12-08T19:21:58.638Z,73.54
2022-12-08T19:24:25.018Z,73.35
2022-12-08T19:26:51.398Z,73.72
2022-12-08T19:29:17.762Z,73.60
2022-12-08T19:31:44.212Z,73.70
2022-12-08T19:34:10.633Z,73.89
2022-12-08T19:36:42.326Z,74.83
2022-12-08T19:39:27.834Z,73.47
2022-12-08T19:42:12.970Z,73.61
2022-12-08T19:44:54.507Z,74.27
2022-12-08T19:47:21.036Z,72.37
2022-12-08T19:49:47.729Z,72.53
2022-12-08T19:52:14.073Z,72.10
2022-12-08T19:54:40.594Z,71.90
2022-12-08T19:57:06.939Z,71.62
2022-12-08T19:59:33.262Z,71.89
2022-12-08T20:01:59.649Z,71.97
2022-12-08T20:04:26.020Z,71.26
2022-12-08T20:06:52.581Z,71.15
2022-12-08T20:09:18.906Z,71.89
2022-12-08T20:11:45.245Z,72.18
2022-12-08T20:14:11.549Z,71.67
2022-12-08T20:16:38.000Z,71.48
2022-12-08T20:19:04.393Z,71.12
2022-12-08T20:21:30.859Z,71.19
2022-12-08T20:23:57.196Z,71.41
2022-12-08T20:26:23.551Z,71.40
2022-12-08T20:28:49.878Z,71.89
2022-12-08T20:31:16.236Z,71.88
2022-12-08T20:33:42.677Z,72.35
2022-12-08T20:36:09.059Z,72.73
2022-12-08T20:38:35.396Z,73.05
2022-12-08T20:41:01.731Z,72.83
2022-12-08T20:43:28.123Z,74.55
2022-12-08T20:45:54.474Z,75.12
2022-12-08T20:48:20.819Z,75.97
2022-12-08T20:50:47.207Z,76.17
2022-12-08T20:53:13.551Z,76.76
2022-12-08T20:55:39.875Z,76.94
2022-12-08T20:58:06.182Z,77.87
2022-12-08T21:00:32.530Z,77.67
2022-12-08T21:02:59.216Z,78.01
2022-12-08T21:05:25.748Z,78.18
2022-12-08T21:07:52.568Z,78.19
2022-12-08T21:10:19.135Z,78.68
2022-12-08T21:12:45.521Z,79.72
2022-12-08T21:15:12.575Z,79.41
2022-12-08T21:17:39.417Z,80.07
2022-12-08T21:20:06.282Z,81.20
2022-12-08T21:22:33.029Z,80.92
2022-12-08T21:24:59.417Z,81.05
2022-12-08T21:27:25.766Z,81.61
2022-12-08T21:29:52.276Z,82.14
2022-12-08T21:32:18.787Z,82.33
2022-12-08T21:34:45.599Z,82.28
2022-12-08T21:37:12.037Z,82.95
2022-12-08T21:39:38.559Z,82.98
2022-12-08T21:42:25.776Z,83.35
2022-12-08T21:44:55.785Z,84.05
2022-12-08T21:47:22.494Z,84.87
2022-12-08T21:49:48.909Z,84.83
2022-12-08T21:52:15.415Z,84.18
2022-12-08T21:54:41.873Z,83.28
2022-12-08T21:57:08.365Z,82.29
2022-12-08T21:59:34.741Z,84.99
2022-12-08T22:02:01.733Z,85.46
2022-12-08T22:04:28.549Z,84.52
2022-12-08T22:06:55.135Z,85.77
2022-12-08T22:09:21.645Z,85.16
2022-12-08T22:11:48.224Z,86.03
2022-12-08T22:14:15.423Z,86.82
2022-12-08T22:16:42.284Z,87.54
2022-12-08T22:19:08.788Z,87.25
2022-12-08T22:21:35.317Z,89.26
2022-12-08T22:24:01.812Z,88.89
2022-12-08T22:26:28.283Z,88.85
2022-12-08T22:28:54.768Z,89.35
2022-12-08T22:31:21.283Z,88.97
2022-12-08T22:33:47.827Z,88.33
2022-12-08T22:36:14.332Z,87.51
2022-12-08T22:38:40.946Z,87.17
2022-12-08T22:41:07.406Z,87.66
2022-12-08T22:43:34.029Z,86.47
2022-12-08T22:46:00.766Z,86.80
2022-12-08T22:48:27.389Z,88.89
2022-12-08T22:50:53.871Z,86.59
2022-12-08T22:53:20.369Z,87.67
2022-12-08T22:55:46.928Z,89.42
2022-12-08T22:58:13.489Z,89.71
2022-12-08T23:00:40.090Z,89.30
2022-12-08T23:03:06.530Z,87.67
2022-12-08T23:05:33.223Z,87.27
2022-12-08T23:07:59.923Z,88.33
2022-12-08T23:10:26.303Z,88.39
2022-12-08T23:12:53.312Z,87.15
2022-12-08T23:15:19.653Z,86.30
2022-12-08T23:17:46.195Z,86.39
2022-12-08T23:20:12.609Z,86.65
2022-12-08T23:22:39.027Z,86.44
2022-12-08T23:25:05.342Z,86.60
2022-12-08T23:27:31.824Z,87.35
2022-12-08T23:29:58.165Z,86.82
2022-12-08T23:32:24.824Z,85.75
2022-12-08T23:34:51.429Z,85.60
2022-12-08T23:37:17.964Z,84.82
2022-12-08T23:39:44.340Z,85.64
2022-12-08T23:42:11.074Z,85.66
2022-12-08T23:44:37.624Z,84.79
2022-12-08T23:47:04.095Z,84.85
2022-12-08T23:49:30.442Z,84.26
2022-12-08T23:51:56.759Z,83.74
2022-12-08T23:54:23.158Z,84.27
2022-12-08T23:56:49.727Z,85.57
2022-12-08T23:59:16.466Z,85.35
